Mundare, Canada
Current Conditions -  °F | °C
As of 1:00 AM on Saturday 25 Oct 2014 (Local Time) from CYED Reporting Station
Clear Clear  
Wind Chill: 23°   Ceiling: Unl
Heat Index: 30°   Visibility: 9mi
Dew Point: 19°   Wind: 7mph
Humidity: 64%   Direction: 270°W
Pressure: 29.99"   Gusts: NA
Location:  53.59°N, 112.34°W
Report Text: CYED 250700Z AUTO 27006KT 9SM CLR M01/M07 A2999 RMK SLP177
Loading
Personal Weather Stations






























Interactive Weather Map
Tropical Storm Tracking
New forecast layout! Learn more

10-Day Weather Forecast

Advertisements
Track Severe Weather on mobile